Time;durP1;ratioP1;P1;durP2;ratioP2;P2;SDS_P1;SDS_P2;PMS_P1;PMS_P2;Temp;Humidity;BMP_temperature;BMP_pressure;BME280_temperature;BME280_humidity;BME280_pressure;Samples;Min_cycle;Max_cycle;Signal;HPM_P1;HPM_P2
2021/09/06 00:00:01;;;;;;;7.63;3.40;;;;;;;;;;5070360;28;20538;-70
2021/09/06 00:02:28;;;;;;;5.93;3.20;;;;;;;;;;5069468;28;20382;-69
2021/09/06 00:04:54;;;;;;;5.43;2.42;;;;;;;;;;5070700;28;20017;-70
2021/09/06 00:07:20;;;;;;;5.72;2.97;;;;;;;;;;5070242;28;20104;-71
2021/09/06 00:09:50;;;;;;;5.75;2.80;;;;;;;;;;5070791;28;20028;-70
2021/09/06 00:12:17;;;;;;;6.43;3.22;;;;;;;;;;5069305;28;20053;-71
2021/09/06 00:14:43;;;;;;;5.88;3.20;;;;;;;;;;5070239;28;20111;-69
2021/09/06 00:18:26;;;;;;;6.68;2.80;;;;;;;;;;5111494;27;20454;-69
2021/09/06 00:23:04;;;;;;;7.47;3.00;;;;;;;;;;5112006;27;20119;-67
2021/09/06 00:27:00;;;;;;;6.55;3.53;;;;;;;;;;5111979;27;20521;-66
2021/09/06 00:29:26;;;;;;;6.22;3.30;;;;;;;;;;5109706;28;20023;-69
2021/09/06 00:33:54;;;;;;;5.30;2.85;;;;;;;;;;5111720;27;20416;-67
2021/09/06 00:36:20;;;;;;;6.93;3.13;;;;;;;;;;5111070;28;20031;-67
2021/09/06 00:38:47;;;;;;;5.07;2.50;;;;;;;;;;5127111;28;20555;-67
2021/09/06 00:42:30;;;;;;;9.18;3.13;;;;;;;;;;5111436;27;20426;-69
2021/09/06 00:44:56;;;;;;;5.22;3.03;;;;;;;;;;5111350;28;20102;-66
2021/09/06 00:47:22;;;;;;;4.50;2.60;;;;;;;;;;5110050;28;20024;-66
2021/09/06 00:53:16;;;;;;;6.82;3.47;;;;;;;;;;5112186;27;20404;-68
2021/09/06 00:55:42;;;;;;;5.70;3.05;;;;;;;;;;5111099;28;20431;-67
2021/09/06 00:58:09;;;;;;;5.72;2.83;;;;;;;;;;5111244;28;20027;-68
2021/09/06 01:00:35;;;;;;;6.38;2.78;;;;;;;;;;5111268;28;20035;-68
2021/09/06 01:03:02;;;;;;;5.03;2.70;;;;;;;;;;5110773;28;20020;-67
2021/09/06 01:05:29;;;;;;;6.20;3.03;;;;;;;;;;5111480;28;20028;-67
2021/09/06 01:07:56;;;;;;;4.93;3.10;;;;;;;;;;5111284;28;20034;-67
2021/09/06 01:10:23;;;;;;;6.40;3.13;;;;;;;;;;5110717;28;20052;-67
2021/09/06 01:12:49;;;;;;;7.32;2.88;;;;;;;;;;5110925;28;20084;-67
2021/09/06 01:16:32;;;;;;;5.30;2.78;;;;;;;;;;5111499;27;20397;-66
2021/09/06 01:18:58;;;;;;;4.55;2.28;;;;;;;;;;5110945;28;20024;-69
2021/09/06 01:21:24;;;;;;;6.00;2.97;;;;;;;;;;5111291;28;20361;-66
2021/09/06 01:23:50;;;;;;;7.15;3.00;;;;;;;;;;5111076;28;20027;-66
2021/09/06 01:27:41;;;;;;;5.88;3.13;;;;;;;;;;5071195;28;20387;-66
2021/09/06 01:30:07;;;;;;;7.25;3.88;;;;;;;;;;5070800;28;20029;-69
2021/09/06 01:34:50;;;;;;;6.65;3.20;;;;;;;;;;5111343;27;20388;-66
2021/09/06 01:37:16;;;;;;;5.53;3.28;;;;;;;;;;5110094;28;20031;-67
2021/09/06 01:39:43;;;;;;;6.00;2.95;;;;;;;;;;5110993;28;20480;-69
2021/09/06 01:42:09;;;;;;;5.72;3.25;;;;;;;;;;5111213;28;20020;-67
2021/09/06 01:46:59;;;;;;;5.13;2.75;;;;;;;;;;5111074;27;20416;-68
2021/09/06 01:49:25;;;;;;;5.32;3.08;;;;;;;;;;5110031;28;20048;-68
2021/09/06 01:51:51;;;;;;;6.57;3.45;;;;;;;;;;5111277;28;20491;-68
2021/09/06 01:54:17;;;;;;;6.95;3.97;;;;;;;;;;5110872;28;20070;-69
2021/09/06 01:58:05;;;;;;;7.03;3.80;;;;;;;;;;5111568;27;20896;-67
2021/09/06 02:00:31;;;;;;;8.52;4.18;;;;;;;;;;5109664;28;20384;-66
2021/09/06 02:02:57;;;;;;;9.52;4.10;;;;;;;;;;5110043;28;20052;-68
2021/09/06 02:05:23;;;;;;;7.88;4.05;;;;;;;;;;5111467;28;20499;-66
2021/09/06 02:08:07;;;;;;;8.27;4.07;;;;;;;;;;5111073;27;20393;-67
2021/09/06 02:10:34;;;;;;;6.18;3.65;;;;;;;;;;5111343;28;20028;-67
2021/09/06 02:13:00;;;;;;;6.88;4.22;;;;;;;;;;5111294;28;20051;-68
2021/09/06 02:15:26;;;;;;;7.97;4.18;;;;;;;;;;5110871;28;20467;-67
2021/09/06 02:19:22;;;;;;;7.32;3.90;;;;;;;;;;5111662;27;20454;-66
2021/09/06 02:21:48;;;;;;;5.20;3.35;;;;;;;;;;5110970;28;20023;-69
2021/09/06 02:26:21;;;;;;;6.53;3.97;;;;;;;;;;5112180;27;20884;-66
2021/09/06 02:28:48;;;;;;;7.13;4.00;;;;;;;;;;5109732;28;20031;-67
2021/09/06 02:31:57;;;;;;;5.28;3.20;;;;;;;;;;5098801;27;1618151;-67
2021/09/06 02:34:23;;;;;;;6.68;3.05;;;;;;;;;;5131447;28;20035;-67
2021/09/06 02:37:56;;;;;;;7.15;3.65;;;;;;;;;;5111386;27;20393;-66
2021/09/06 02:40:23;;;;;;;6.35;3.33;;;;;;;;;;5111332;28;20073;-68
2021/09/06 02:42:49;;;;;;;7.53;3.47;;;;;;;;;;5110884;28;20081;-67
2021/09/06 02:45:15;;;;;;;5.95;3.42;;;;;;;;;;5110018;28;20103;-67
2021/09/06 02:47:48;;;;;;;8.43;4.00;;;;;;;;;;5111459;28;20468;-67
2021/09/06 02:50:15;;;;;;;7.82;4.05;;;;;;;;;;5110978;28;20093;-68
2021/09/06 02:52:41;;;;;;;5.97;3.55;;;;;;;;;;5111106;28;20047;-69
2021/09/06 02:56:50;;;;;;;6.80;3.95;;;;;;;;;;5111269;27;20454;-67
2021/09/06 02:59:16;;;;;;;7.47;4.07;;;;;;;;;;5111396;28;20016;-70
2021/09/06 03:05:06;;;;;;;6.82;3.70;;;;;;;;;;5111865;27;20409;-67
2021/09/06 03:11:59;;;;;;;5.63;3.50;;;;;;;;;;5111490;27;20416;-66
2021/09/06 03:14:25;;;;;;;8.10;3.72;;;;;;;;;;5111396;28;20031;-67
2021/09/06 03:16:52;;;;;;;6.68;3.22;;;;;;;;;;5110948;28;20093;-69
2021/09/06 03:19:19;;;;;;;5.18;3.25;;;;;;;;;;5111291;28;20536;-69
2021/09/06 03:21:45;;;;;;;6.75;3.75;;;;;;;;;;5111390;28;20034;-69
2021/09/06 03:24:12;;;;;;;7.68;4.35;;;;;;;;;;5110729;28;20020;-66
2021/09/06 03:26:38;;;;;;;8.40;4.82;;;;;;;;;;5111406;28;20043;-66
2021/09/06 03:29:29;;;;;;;6.13;3.60;;;;;;;;;;5112168;27;20393;-66
2021/09/06 03:31:57;;;;;;;6.35;3.80;;;;;;;;;;5111012;28;20051;-66
2021/09/06 03:36:00;;;;;;;6.53;3.45;;;;;;;;;;5112102;27;20392;-68
2021/09/06 03:40:11;;;;;;;8.40;4.13;;;;;;;;;;5111713;27;20401;-67
2021/09/06 03:42:37;;;;;;;7.50;3.95;;;;;;;;;;5111306;28;20107;-67
2021/09/06 03:45:04;;;;;;;8.93;4.40;;;;;;;;;;5110890;28;20024;-67
2021/09/06 03:47:32;;;;;;;8.65;4.38;;;;;;;;;;5111223;28;20476;-67
2021/09/06 03:49:58;;;;;;;7.85;4.38;;;;;;;;;;5111180;28;20035;-67
2021/09/06 03:56:20;;;;;;;7.18;4.35;;;;;;;;;;5111786;27;20969;-67
2021/09/06 04:00:10;;;;;;;7.82;4.53;;;;;;;;;;5111169;27;20465;-67
2021/09/06 04:02:36;;;;;;;7.88;4.35;;;;;;;;;;5111364;28;20487;-67
2021/09/06 04:05:24;;;;;;;9.10;5.20;;;;;;;;;;5070985;28;20520;-68
2021/09/06 04:07:50;;;;;;;9.75;5.20;;;;;;;;;;5070357;28;20017;-68
2021/09/06 04:10:16;;;;;;;8.73;4.97;;;;;;;;;;5069499;28;20031;-68
2021/09/06 04:12:43;;;;;;;9.52;5.70;;;;;;;;;;5070425;28;20376;-68
2021/09/06 04:15:11;;;;;;;8.35;5.18;;;;;;;;;;5071172;28;20504;-68
2021/09/06 04:17:37;;;;;;;9.52;4.75;;;;;;;;;;5070936;28;20029;-68
2021/09/06 04:24:49;;;;;;;8.88;4.70;;;;;;;;;;5111870;27;21020;-69
2021/09/06 04:29:15;;;;;;;9.70;4.22;;;;;;;;;;5111394;27;20908;-68
2021/09/06 04:31:42;;;;;;;8.48;5.10;;;;;;;;;;5110069;28;20023;-68
2021/09/06 04:34:08;;;;;;;7.75;4.30;;;;;;;;;;5111043;28;20031;-69
2021/09/06 04:36:34;;;;;;;11.13;5.43;;;;;;;;;;5111719;28;20098;-68
2021/09/06 04:39:00;;;;;;;10.30;5.55;;;;;;;;;;5111213;28;20480;-69
2021/09/06 04:41:26;;;;;;;9.30;4.47;;;;;;;;;;5110788;28;20073;-69
2021/09/06 04:45:57;;;;;;;8.55;4.55;;;;;;;;;;5111736;27;20393;-67
2021/09/06 04:48:24;;;;;;;9.73;4.68;;;;;;;;;;5111136;28;20024;-67
2021/09/06 04:50:50;;;;;;;9.20;4.18;;;;;;;;;;5111427;28;20023;-68
2021/09/06 04:55:26;;;;;;;7.00;4.25;;;;;;;;;;5111301;27;20434;-68
2021/09/06 04:58:21;;;;;;;7.30;4.32;;;;;;;;;;5111666;27;20420;-69
2021/09/06 05:00:47;;;;;;;13.75;5.28;;;;;;;;;;5111520;28;20035;-69
2021/09/06 05:03:13;;;;;;;10.23;4.38;;;;;;;;;;5110840;28;20066;-68
2021/09/06 05:05:39;;;;;;;6.82;4.57;;;;;;;;;;5111480;28;20031;-68
2021/09/06 05:08:05;;;;;;;9.05;5.45;;;;;;;;;;5111216;28;20020;-68
2021/09/06 05:10:32;;;;;;;9.60;5.03;;;;;;;;;;5110776;28;20050;-67
2021/09/06 05:12:58;;;;;;;9.88;5.13;;;;;;;;;;5111238;28;20085;-73
2021/09/06 05:15:25;;;;;;;7.93;4.40;;;;;;;;;;5126580;28;20024;-71
2021/09/06 05:17:51;;;;;;;8.32;4.80;;;;;;;;;;5110301;28;20040;-72
2021/09/06 05:20:17;;;;;;;7.13;4.47;;;;;;;;;;5110819;28;20027;-71
2021/09/06 05:24:19;;;;;;;10.13;5.97;;;;;;;;;;5090154;28;21265;-72
2021/09/06 05:26:45;;;;;;;10.48;5.72;;;;;;;;;;5088898;28;20052;-70
2021/09/06 05:29:11;;;;;;;7.35;4.47;;;;;;;;;;5088421;28;20532;-73
2021/09/06 05:31:37;;;;;;;7.50;4.50;;;;;;;;;;5087664;28;20029;-74
2021/09/06 05:37:44;;;;;;;8.50;5.35;;;;;;;;;;5108552;27;20443;-69
2021/09/06 05:40:11;;;;;;;8.00;4.85;;;;;;;;;;5103968;28;20024;-71
2021/09/06 05:42:37;;;;;;;9.23;4.88;;;;;;;;;;5110733;28;20094;-71
2021/09/06 05:45:04;;;;;;;8.90;4.95;;;;;;;;;;5110685;28;20408;-71
2021/09/06 05:47:30;;;;;;;8.10;4.82;;;;;;;;;;5110336;28;20537;-72
2021/09/06 05:49:56;;;;;;;9.43;5.13;;;;;;;;;;5110455;28;20046;-70
2021/09/06 05:56:01;;;;;;;7.65;4.78;;;;;;;;;;5166800;27;20398;-72
2021/09/06 05:58:28;;;;;;;8.48;5.18;;;;;;;;;;5154039;27;20033;-72
2021/09/06 06:00:55;;;;;;;7.22;4.45;;;;;;;;;;5151932;27;20026;-72
2021/09/06 06:03:21;;;;;;;9.55;5.25;;;;;;;;;;5151893;27;20475;-70
2021/09/06 06:05:47;;;;;;;8.88;4.93;;;;;;;;;;5151912;27;20034;-72
2021/09/06 06:09:09;;;;;;;10.32;5.03;;;;;;;;;;5111524;27;20454;-72
2021/09/06 06:11:40;;;;;;;7.05;4.35;;;;;;;;;;5110898;28;20032;-73
2021/09/06 06:14:06;;;;;;;6.80;4.40;;;;;;;;;;5110388;28;20058;-72
2021/09/06 06:16:32;;;;;;;8.48;4.68;;;;;;;;;;5107773;28;20069;-71
2021/09/06 06:18:59;;;;;;;9.25;5.10;;;;;;;;;;5110824;28;20016;-71
2021/09/06 06:21:29;;;;;;;8.27;4.80;;;;;;;;;;5110258;28;20545;-70
2021/09/06 06:24:01;;;;;;;8.95;5.00;;;;;;;;;;5108137;28;20073;-71
2021/09/06 06:26:27;;;;;;;7.60;4.67;;;;;;;;;;5109963;28;20104;-71
2021/09/06 06:30:13;;;;;;;7.27;4.77;;;;;;;;;;5013734;27;2309311;-73
2021/09/06 06:32:40;;;;;;;7.25;4.40;;;;;;;;;;5071560;28;20048;-68
2021/09/06 06:35:15;;;;;;;8.77;6.13;;;;;;;;;;5070649;28;20086;-69
2021/09/06 06:37:42;;;;;;;8.05;4.55;;;;;;;;;;5071020;28;20025;-68
2021/09/06 06:40:20;;;;;;;7.40;3.92;;;;;;;;;;5069958;28;20025;-74
2021/09/06 06:42:46;;;;;;;8.18;4.40;;;;;;;;;;5070400;28;20431;-71
2021/09/06 06:45:13;;;;;;;7.32;4.72;;;;;;;;;;5066952;28;20017;-71
2021/09/06 06:47:39;;;;;;;7.00;4.32;;;;;;;;;;5062906;28;20179;-70
2021/09/06 06:50:08;;;;;;;7.43;4.35;;;;;;;;;;5070099;28;20340;-69
2021/09/06 06:52:35;;;;;;;7.93;4.22;;;;;;;;;;5070352;28;20070;-69
2021/09/06 06:55:01;;;;;;;11.23;4.50;;;;;;;;;;5069550;28;20020;-71
2021/09/06 06:57:28;;;;;;;7.22;4.30;;;;;;;;;;5069615;28;20354;-69
2021/09/06 06:59:54;;;;;;;7.28;4.15;;;;;;;;;;5067494;28;20141;-67
2021/09/06 07:02:21;;;;;;;7.63;3.95;;;;;;;;;;5066822;28;20028;-70
2021/09/06 07:04:47;;;;;;;7.10;4.10;;;;;;;;;;5065461;28;20025;-69
2021/09/06 07:07:13;;;;;;;6.63;3.85;;;;;;;;;;5066020;28;20497;-70
2021/09/06 07:09:40;;;;;;;5.85;3.85;;;;;;;;;;5067150;28;20025;-68
2021/09/06 07:14:01;;;;;;;8.52;4.13;;;;;;;;;;5108767;27;20422;-69
2021/09/06 07:16:28;;;;;;;6.95;3.45;;;;;;;;;;5106441;28;20032;-70
2021/09/06 07:18:54;;;;;;;5.28;3.20;;;;;;;;;;5110341;28;20038;-70
2021/09/06 07:23:07;;;;;;;8.38;4.00;;;;;;;;;;5110718;27;20392;-76
2021/09/06 07:25:33;;;;;;;8.10;4.32;;;;;;;;;;5111082;28;20375;-73
2021/09/06 07:30:02;;;;;;;6.53;3.33;;;;;;;;;;5111145;27;20389;-73
2021/09/06 07:32:28;;;;;;;6.85;4.13;;;;;;;;;;5109623;28;20391;-73
2021/09/06 07:34:54;;;;;;;6.00;3.60;;;;;;;;;;5109023;28;20047;-69
2021/09/06 07:37:20;;;;;;;7.38;4.10;;;;;;;;;;5107098;28;20106;-71
2021/09/06 07:39:47;;;;;;;6.97;3.85;;;;;;;;;;5108858;28;20350;-70
2021/09/06 07:45:35;;;;;;;7.93;3.97;;;;;;;;;;5108291;27;20389;-75
2021/09/06 07:48:01;;;;;;;7.57;4.03;;;;;;;;;;5109413;28;20055;-74
2021/09/06 07:50:28;;;;;;;7.82;4.32;;;;;;;;;;5111053;28;20031;-73
2021/09/06 07:57:47;;;;;;;5.85;3.25;;;;;;;;;;5107973;27;20509;-75
2021/09/06 08:00:14;;;;;;;6.35;3.28;;;;;;;;;;5107335;28;20387;-72
2021/09/06 08:02:48;;;;;;;8.23;3.67;;;;;;;;;;5108273;28;20073;-72
2021/09/06 08:05:45;;;;;;;8.07;4.43;;;;;;;;;;5108627;27;21013;-73
2021/09/06 08:08:11;;;;;;;7.88;3.65;;;;;;;;;;5110357;28;20526;-73
2021/09/06 08:10:38;;;;;;;6.82;3.75;;;;;;;;;;5110655;28;20031;-73
2021/09/06 08:15:15;;;;;;;5.78;3.50;;;;;;;;;;5111106;27;20800;-70
2021/09/06 08:17:41;;;;;;;8.13;4.00;;;;;;;;;;5111147;28;20047;-69
2021/09/06 08:20:10;;;;;;;6.45;3.40;;;;;;;;;;5109442;28;20031;-69
2021/09/06 08:22:36;;;;;;;5.80;2.90;;;;;;;;;;5111148;28;20056;-70
2021/09/06 08:26:39;;;;;;;7.65;3.53;;;;;;;;;;5110538;27;20393;-72
2021/09/06 08:29:05;;;;;;;6.43;3.65;;;;;;;;;;5109177;28;20034;-73
2021/09/06 08:31:31;;;;;;;6.57;3.10;;;;;;;;;;5110630;28;20484;-72
2021/09/06 08:34:00;;;;;;;8.27;3.40;;;;;;;;;;5110241;28;20531;-75
2021/09/06 08:36:26;;;;;;;8.75;3.85;;;;;;;;;;5111647;28;20031;-75
2021/09/06 08:38:52;;;;;;;7.55;3.63;;;;;;;;;;5111696;28;20378;-80
2021/09/06 08:41:18;;;;;;;6.80;3.10;;;;;;;;;;5113176;28;20055;-81
2021/09/06 08:43:45;;;;;;;8.52;3.60;;;;;;;;;;5111993;28;20019;-80
2021/09/06 08:46:11;;;;;;;6.47;3.42;;;;;;;;;;5120923;28;20031;-78
2021/09/06 08:48:37;;;;;;;5.90;3.17;;;;;;;;;;5110402;28;20495;-81
2021/09/06 08:51:04;;;;;;;6.65;3.33;;;;;;;;;;5109288;28;20027;-76
2021/09/06 08:55:06;;;;;;;5.57;3.53;;;;;;;;;;5068946;28;20412;-74
2021/09/06 08:57:32;;;;;;;6.63;3.30;;;;;;;;;;5070011;28;20418;-75
2021/09/06 09:00:02;;;;;;;6.07;3.38;;;;;;;;;;5069445;28;20474;-74
2021/09/06 09:02:29;;;;;;;6.68;2.97;;;;;;;;;;5070143;28;20024;-73
2021/09/06 09:04:59;;;;;;;5.13;3.00;;;;;;;;;;5070436;28;20475;-74
2021/09/06 09:07:27;;;;;;;6.30;2.97;;;;;;;;;;5064104;28;20078;-74
2021/09/06 09:10:37;;;;;;;6.10;3.33;;;;;;;;;;5111333;27;20799;-75
2021/09/06 09:13:05;;;;;;;6.13;3.05;;;;;;;;;;5110993;28;20076;-75
2021/09/06 09:15:31;;;;;;;5.85;3.13;;;;;;;;;;5109835;28;20024;-76
2021/09/06 09:17:58;;;;;;;5.43;2.95;;;;;;;;;;5118464;28;20073;-71
2021/09/06 09:20:35;;;;;;;5.63;2.80;;;;;;;;;;5116566;28;20361;-71
2021/09/06 09:23:03;;;;;;;5.45;3.08;;;;;;;;;;5110545;28;20472;-74
2021/09/06 09:25:31;;;;;;;4.20;2.55;;;;;;;;;;5109310;28;20047;-68
2021/09/06 09:27:57;;;;;;;6.45;3.47;;;;;;;;;;5110267;28;20020;-70
2021/09/06 09:30:25;;;;;;;5.85;3.22;;;;;;;;;;5108943;28;20032;-70
2021/09/06 09:33:09;;;;;;;5.32;2.67;;;;;;;;;;5110089;28;20016;-70
2021/09/06 09:35:35;;;;;;;5.97;3.50;;;;;;;;;;5109651;28;20081;-71
2021/09/06 09:38:02;;;;;;;6.30;2.97;;;;;;;;;;5106891;28;20077;-72
2021/09/06 09:40:32;;;;;;;8.70;3.00;;;;;;;;;;5109729;28;20019;-72
2021/09/06 09:42:58;;;;;;;6.32;3.22;;;;;;;;;;5109860;28;20024;-73
2021/09/06 09:45:25;;;;;;;8.02;3.50;;;;;;;;;;5108629;28;20391;-73
2021/09/06 09:47:55;;;;;;;6.00;2.85;;;;;;;;;;5110392;28;20030;-72
2021/09/06 09:50:22;;;;;;;6.60;3.20;;;;;;;;;;5109797;28;20399;-71
2021/09/06 09:52:50;;;;;;;6.55;3.22;;;;;;;;;;5109126;28;20073;-73
2021/09/06 09:55:17;;;;;;;6.95;3.38;;;;;;;;;;5105914;28;20411;-72
2021/09/06 09:57:43;;;;;;;6.20;3.58;;;;;;;;;;5106141;28;20052;-71
2021/09/06 10:00:09;;;;;;;5.85;3.08;;;;;;;;;;5109590;28;20028;-70
2021/09/06 10:02:36;;;;;;;7.38;3.78;;;;;;;;;;5108607;28;20016;-68
2021/09/06 10:05:06;;;;;;;4.75;2.80;;;;;;;;;;5108847;28;20020;-73
2021/09/06 10:07:34;;;;;;;7.10;3.42;;;;;;;;;;5109290;28;20484;-71
2021/09/06 10:10:12;;;;;;;7.80;3.55;;;;;;;;;;5109065;28;20131;-74
2021/09/06 10:12:38;;;;;;;7.20;3.10;;;;;;;;;;5108588;28;20016;-71
2021/09/06 10:15:06;;;;;;;5.30;3.20;;;;;;;;;;5108550;28;20596;-69
2021/09/06 10:17:39;;;;;;;6.15;3.40;;;;;;;;;;5107475;28;20024;-69
2021/09/06 10:20:12;;;;;;;7.18;3.90;;;;;;;;;;5105938;28;20099;-68
2021/09/06 10:22:38;;;;;;;;;;;;;;;;;;5089487;28;20028;-68
2021/09/06 10:25:06;;;;;;;5.95;3.55;;;;;;;;;;5094509;28;20261;-70
2021/09/06 10:27:35;;;;;;;5.30;3.08;;;;;;;;;;5092656;28;20634;-70
2021/09/06 10:30:03;;;;;;;5.50;3.08;;;;;;;;;;5095696;28;20039;-70
2021/09/06 10:32:39;;;;;;;8.52;3.25;;;;;;;;;;5094320;28;20035;-70
2021/09/06 10:35:10;;;;;;;5.78;3.00;;;;;;;;;;5087276;28;20103;-69
2021/09/06 10:37:37;;;;;;;6.55;2.70;;;;;;;;;;5095100;28;20031;-69
2021/09/06 10:40:04;;;;;;;8.55;3.58;;;;;;;;;;5093624;28;20070;-69
2021/09/06 10:42:31;;;;;;;5.72;3.30;;;;;;;;;;5094609;28;20024;-71
2021/09/06 10:44:59;;;;;;;6.90;3.55;;;;;;;;;;5095247;28;20366;-69
2021/09/06 10:47:25;;;;;;;8.63;3.97;;;;;;;;;;5093255;28;20024;-70
2021/09/06 10:49:52;;;;;;;7.97;3.80;;;;;;;;;;5097347;28;20488;-69
2021/09/06 10:55:01;;;;;;;7.90;3.50;;;;;;;;;;5130801;27;20471;-66
2021/09/06 10:57:27;;;;;;;8.82;3.95;;;;;;;;;;5131406;28;20028;-69
2021/09/06 10:59:53;;;;;;;7.60;3.50;;;;;;;;;;5130429;27;20055;-71
2021/09/06 11:02:20;;;;;;;5.75;3.55;;;;;;;;;;5128440;28;20106;-70
2021/09/06 11:05:18;;;;;;;9.07;3.72;;;;;;;;;;5108844;27;20385;-69
2021/09/06 11:07:45;;;;;;;7.50;4.97;;;;;;;;;;5109802;28;20059;-77
2021/09/06 11:10:12;;;;;;;7.05;4.20;;;;;;;;;;5110504;28;20086;-73
2021/09/06 11:12:39;;;;;;;6.45;3.60;;;;;;;;;;5109178;28;20020;-69
2021/09/06 11:15:06;;;;;;;6.68;3.30;;;;;;;;;;5098525;28;20095;-73
2021/09/06 11:17:32;;;;;;;5.43;3.20;;;;;;;;;;5094511;28;20027;-73
2021/09/06 11:20:01;;;;;;;6.85;4.00;;;;;;;;;;5110635;28;20095;-71
2021/09/06 11:22:28;;;;;;;5.68;3.13;;;;;;;;;;5110144;28;20074;-70
2021/09/06 11:24:59;;;;;;;11.05;3.95;;;;;;;;;;5109531;28;20032;-71
2021/09/06 11:27:26;;;;;;;6.38;3.30;;;;;;;;;;5110364;28;20125;-73
2021/09/06 11:29:53;;;;;;;7.13;4.47;;;;;;;;;;5108709;28;20032;-76
2021/09/06 11:32:19;;;;;;;9.25;4.75;;;;;;;;;;5106675;28;20033;-72
2021/09/06 11:34:47;;;;;;;7.10;3.88;;;;;;;;;;5106677;28;20472;-71
2021/09/06 11:37:14;;;;;;;5.95;3.53;;;;;;;;;;5110020;28;20024;-75
2021/09/06 11:39:43;;;;;;;8.68;4.22;;;;;;;;;;5110085;28;20019;-72
2021/09/06 11:42:09;;;;;;;6.07;3.70;;;;;;;;;;5109912;28;20020;-73
2021/09/06 11:46:20;;;;;;;7.50;3.35;;;;;;;;;;5110895;27;20839;-72
2021/09/06 11:48:48;;;;;;;6.25;3.22;;;;;;;;;;5110367;28;20373;-71
2021/09/06 11:51:15;;;;;;;5.00;2.70;;;;;;;;;;5110453;28;20050;-69
2021/09/06 11:53:41;;;;;;;5.72;3.08;;;;;;;;;;5109081;28;20027;-70
2021/09/06 11:56:14;;;;;;;6.65;3.38;;;;;;;;;;5110638;28;20024;-69
2021/09/06 11:58:47;;;;;;;7.05;3.97;;;;;;;;;;5110294;28;20476;-69
2021/09/06 12:01:14;;;;;;;7.38;3.67;;;;;;;;;;5109110;28;20020;-68
2021/09/06 12:03:41;;;;;;;6.65;3.65;;;;;;;;;;5109292;28;20107;-69
2021/09/06 12:06:09;;;;;;;8.05;3.60;;;;;;;;;;5108891;28;20514;-69
2021/09/06 12:08:35;;;;;;;6.25;3.63;;;;;;;;;;5110247;28;20081;-69
2021/09/06 12:11:09;;;;;;;9.75;4.10;;;;;;;;;;5109612;28;20111;-68
2021/09/06 12:13:36;;;;;;;8.07;3.83;;;;;;;;;;5109797;28;20024;-68
2021/09/06 12:16:07;;;;;;;7.82;3.90;;;;;;;;;;5110094;28;20019;-69
2021/09/06 12:18:43;;;;;;;8.10;3.83;;;;;;;;;;5109551;28;20384;-69
2021/09/06 12:21:14;;;;;;;9.38;4.20;;;;;;;;;;5108773;28;20027;-68
2021/09/06 12:23:41;;;;;;;8.02;4.20;;;;;;;;;;5110046;28;20061;-69
2021/09/06 12:26:09;;;;;;;8.55;4.18;;;;;;;;;;5109668;28;20509;-69
2021/09/06 12:28:46;;;;;;;11.23;3.83;;;;;;;;;;5110398;28;20016;-67
2021/09/06 12:31:12;;;;;;;6.97;3.60;;;;;;;;;;5110230;28;20365;-70
2021/09/06 12:33:38;;;;;;;7.15;3.92;;;;;;;;;;5109713;28;20103;-68
2021/09/06 12:36:06;;;;;;;7.88;3.97;;;;;;;;;;5107462;28;20023;-68
2021/09/06 12:38:32;;;;;;;7.07;3.50;;;;;;;;;;5107917;28;20024;-68
2021/09/06 12:40:58;;;;;;;7.70;3.70;;;;;;;;;;5107433;28;20031;-68
2021/09/06 12:43:24;;;;;;;6.10;3.22;;;;;;;;;;5109291;28;20476;-66
2021/09/06 12:45:51;;;;;;;7.47;3.65;;;;;;;;;;5109637;28;20048;-68
2021/09/06 12:48:17;;;;;;;8.35;4.07;;;;;;;;;;5108730;28;20044;-68
2021/09/06 12:50:43;;;;;;;6.63;3.40;;;;;;;;;;5107844;28;20026;-67
2021/09/06 12:53:09;;;;;;;5.55;3.42;;;;;;;;;;5109226;28;20066;-67
2021/09/06 12:55:36;;;;;;;9.38;4.18;;;;;;;;;;5107962;28;20034;-67
2021/09/06 12:58:02;;;;;;;6.57;3.70;;;;;;;;;;5094101;28;20486;-68
2021/09/06 13:00:29;;;;;;;5.57;3.45;;;;;;;;;;5095466;28;20552;-67
2021/09/06 13:02:55;;;;;;;5.30;3.42;;;;;;;;;;5096079;28;20020;-68
2021/09/06 13:05:22;;;;;;;16.63;3.65;;;;;;;;;;5095851;28;20414;-69
2021/09/06 13:07:48;;;;;;;4.95;3.22;;;;;;;;;;5094215;28;20020;-69
2021/09/06 13:10:14;;;;;;;7.00;3.25;;;;;;;;;;5095608;28;20483;-68
2021/09/06 13:12:40;;;;;;;5.20;3.40;;;;;;;;;;5095792;28;20099;-68
2021/09/06 13:15:08;;;;;;;5.68;3.33;;;;;;;;;;5094160;28;20081;-69
2021/09/06 13:17:34;;;;;;;7.70;3.67;;;;;;;;;;5111960;28;20482;-69
2021/09/06 13:20:13;;;;;;;6.80;3.47;;;;;;;;;;5121298;27;20449;-69
2021/09/06 13:22:40;;;;;;;6.97;3.90;;;;;;;;;;5130685;28;20031;-68
2021/09/06 13:25:07;;;;;;;6.57;3.90;;;;;;;;;;5129520;28;20379;-69
2021/09/06 13:27:33;;;;;;;6.90;3.60;;;;;;;;;;5130227;28;20054;-70
2021/09/06 13:30:01;;;;;;;6.30;3.67;;;;;;;;;;5129972;28;20024;-68
2021/09/06 13:32:27;;;;;;;6.70;3.78;;;;;;;;;;5130460;28;20402;-68
2021/09/06 13:34:53;;;;;;;5.55;3.22;;;;;;;;;;5129620;28;20034;-69
2021/09/06 13:37:20;;;;;;;7.32;3.45;;;;;;;;;;5130492;28;20023;-68
2021/09/06 13:39:46;;;;;;;4.88;2.78;;;;;;;;;;5130079;28;20038;-68
2021/09/06 13:42:12;;;;;;;6.72;3.88;;;;;;;;;;5131098;28;20475;-69
2021/09/06 13:44:38;;;;;;;7.50;3.08;;;;;;;;;;5131367;28;20035;-67
2021/09/06 13:47:05;;;;;;;4.93;2.80;;;;;;;;;;5131315;28;20023;-68
2021/09/06 13:49:31;;;;;;;5.75;3.10;;;;;;;;;;5130839;28;20027;-69
2021/09/06 13:51:58;;;;;;;5.05;3.47;;;;;;;;;;5131228;28;20027;-69
2021/09/06 13:54:24;;;;;;;6.43;3.10;;;;;;;;;;5131144;28;20442;-69
2021/09/06 13:56:50;;;;;;;7.20;3.47;;;;;;;;;;5129220;28;20027;-67
2021/09/06 13:59:18;;;;;;;6.70;3.42;;;;;;;;;;5128376;28;20035;-68
2021/09/06 14:01:44;;;;;;;6.75;3.22;;;;;;;;;;5128221;28;20030;-68
2021/09/06 14:04:10;;;;;;;5.72;3.33;;;;;;;;;;5128732;28;20027;-67
2021/09/06 14:06:37;;;;;;;5.75;3.40;;;;;;;;;;5129817;28;20019;-68
2021/09/06 14:09:03;;;;;;;5.07;3.22;;;;;;;;;;5128311;28;20021;-68
2021/09/06 14:11:29;;;;;;;6.00;3.55;;;;;;;;;;5129476;28;20030;-68
2021/09/06 14:13:56;;;;;;;6.13;2.88;;;;;;;;;;5130137;28;20575;-68
2021/09/06 14:16:22;;;;;;;10.02;3.53;;;;;;;;;;5130820;28;20027;-68
2021/09/06 14:18:48;;;;;;;5.72;3.40;;;;;;;;;;5130300;28;20078;-68
2021/09/06 14:21:14;;;;;;;5.50;3.13;;;;;;;;;;5130557;28;20019;-68
2021/09/06 14:23:41;;;;;;;6.13;3.30;;;;;;;;;;5130933;28;20466;-68
2021/09/06 14:26:07;;;;;;;6.25;3.70;;;;;;;;;;5130099;28;20020;-67
2021/09/06 14:28:33;;;;;;;7.00;3.63;;;;;;;;;;5130596;28;20027;-67
2021/09/06 14:30:59;;;;;;;5.28;3.20;;;;;;;;;;5118619;28;20106;-68
2021/09/06 14:33:28;;;;;;;6.65;3.88;;;;;;;;;;5114951;28;20027;-67
2021/09/06 14:35:55;;;;;;;5.53;3.40;;;;;;;;;;5116480;28;20460;-67
2021/09/06 14:38:22;;;;;;;11.43;4.13;;;;;;;;;;5116475;28;20032;-68
2021/09/06 14:40:48;;;;;;;6.47;3.83;;;;;;;;;;5114924;28;20027;-69
2021/09/06 14:43:14;;;;;;;7.18;4.00;;;;;;;;;;5116451;28;20035;-69
2021/09/06 14:45:40;;;;;;;6.78;3.92;;;;;;;;;;5115879;28;20383;-68
2021/09/06 14:48:06;;;;;;;6.40;3.65;;;;;;;;;;5116424;28;20035;-68
2021/09/06 14:50:33;;;;;;;6.55;3.67;;;;;;;;;;5116467;28;20518;-68
2021/09/06 14:52:59;;;;;;;6.82;4.13;;;;;;;;;;5115851;28;20028;-69
2021/09/06 14:55:25;;;;;;;6.60;3.42;;;;;;;;;;5116091;28;20035;-68
2021/09/06 14:57:52;;;;;;;6.35;3.30;;;;;;;;;;5114714;28;20024;-68
2021/09/06 15:00:18;;;;;;;5.95;3.33;;;;;;;;;;5115821;28;20047;-68
2021/09/06 15:02:45;;;;;;;11.38;3.30;;;;;;;;;;5116281;28;20026;-67
2021/09/06 15:05:11;;;;;;;9.60;3.30;;;;;;;;;;5116139;28;20062;-68
2021/09/06 15:07:37;;;;;;;7.60;3.70;;;;;;;;;;5115597;28;20027;-68
2021/09/06 15:10:04;;;;;;;6.50;3.92;;;;;;;;;;5116013;28;20023;-68
2021/09/06 15:12:31;;;;;;;6.25;3.40;;;;;;;;;;5115955;28;20023;-68
2021/09/06 15:14:57;;;;;;;7.53;3.95;;;;;;;;;;5114225;28;20023;-67
2021/09/06 15:17:23;;;;;;;7.65;3.50;;;;;;;;;;5116141;28;20432;-69
2021/09/06 15:19:49;;;;;;;6.15;3.30;;;;;;;;;;5115578;28;20124;-68
2021/09/06 15:22:15;;;;;;;6.20;3.10;;;;;;;;;;5115434;28;20020;-68
2021/09/06 15:24:42;;;;;;;6.35;3.40;;;;;;;;;;5115783;28;20034;-68
2021/09/06 15:27:11;;;;;;;6.30;3.13;;;;;;;;;;5114267;28;20031;-68
2021/09/06 15:29:55;;;;;;;7.05;3.72;;;;;;;;;;5115380;28;20157;-68
2021/09/06 15:32:22;;;;;;;5.93;3.58;;;;;;;;;;5115422;28;20024;-68
2021/09/06 15:34:48;;;;;;;7.63;3.58;;;;;;;;;;5114592;28;20110;-69
2021/09/06 15:37:14;;;;;;;5.60;2.80;;;;;;;;;;5114479;28;20027;-68
2021/09/06 15:39:44;;;;;;;5.90;3.25;;;;;;;;;;5115263;28;20067;-68
2021/09/06 15:42:11;;;;;;;5.93;3.13;;;;;;;;;;5114224;28;20068;-68
2021/09/06 15:44:37;;;;;;;4.53;2.70;;;;;;;;;;5115428;28;20027;-68
2021/09/06 15:47:04;;;;;;;6.90;3.30;;;;;;;;;;5115238;28;20039;-69
2021/09/06 15:49:30;;;;;;;5.57;3.80;;;;;;;;;;5113654;28;20369;-69
2021/09/06 15:51:56;;;;;;;7.60;3.60;;;;;;;;;;5113868;28;20024;-68
2021/09/06 15:54:22;;;;;;;8.48;3.75;;;;;;;;;;5115398;28;20425;-69
2021/09/06 15:56:48;;;;;;;10.43;3.75;;;;;;;;;;5114717;28;20020;-69
2021/09/06 15:59:15;;;;;;;6.82;3.92;;;;;;;;;;5115278;28;20140;-68
2021/09/06 16:01:42;;;;;;;7.88;4.43;;;;;;;;;;5115083;28;20016;-68
2021/09/06 16:04:08;;;;;;;6.03;3.50;;;;;;;;;;5114637;28;20058;-68
2021/09/06 16:06:35;;;;;;;6.07;3.45;;;;;;;;;;5114989;28;20020;-68
2021/09/06 16:09:01;;;;;;;6.20;3.40;;;;;;;;;;5115014;28;20030;-69
2021/09/06 16:11:28;;;;;;;6.32;3.42;;;;;;;;;;5114482;28;20091;-69
2021/09/06 16:13:54;;;;;;;5.72;3.42;;;;;;;;;;5115325;28;20065;-69